Yucheng, China
Current Conditions -  °F | °C
As of 7:00 AM on Sunday 21 Dec 2014 (Local Time) from ZSJN Reporting Station
Clear Clear  
Wind Chill: 11°   Ceiling: Unl
Heat Index: 18°   Visibility: 6mi
Dew Point:   Wind: 4mph
Humidity: 58%   Direction: 250°WSW
Pressure: 30.5"   Gusts: NA
Location:  36.93°N, 116.65°E
Report Text: ZSJN 202300Z 25002MPS CAVOK M08/M15 Q1033 NOSIG
Loading
Personal Weather Stations






























Interactive Weather Map New forecast layout! Learn more

10-Day Weather Forecast

Advertisements
Track Severe Weather on mobile